Time;durP1;ratioP1;P1;durP2;ratioP2;P2;SDS_P1;SDS_P2;PMS_P1;PMS_P2;Temp;Humidity;BMP_temperature;BMP_pressure;BME280_temperature;BME280_humidity;BME280_pressure;Samples;Min_cycle;Max_cycle;Signal;HPM_P1;HPM_P2
2023/04/20 00:02:16;;;;;;;33.50;17.75;;;4.90;99.90;;;;;;7604018;19;20014;-72
2023/04/20 00:04:49;;;;;;;34.63;18.53;;;5.00;99.90;;;;;;7605958;19;20029;-72
2023/04/20 00:07:23;;;;;;;34.37;17.90;;;4.90;99.90;;;;;;7602436;19;20025;-72
2023/04/20 00:09:55;;;;;;;36.58;19.85;;;4.90;99.90;;;;;;7599989;19;20010;-72
2023/04/20 00:12:27;;;;;;;33.22;18.80;;;4.90;99.90;;;;;;7570618;19;20026;-72
2023/04/20 00:15:00;;;;;;;34.58;18.63;;;4.80;99.90;;;;;;7601739;19;20011;-72
2023/04/20 00:17:32;;;;;;;30.35;17.33;;;4.90;99.90;;;;;;7576743;19;20022;-71
2023/04/20 00:20:08;;;;;;;37.15;19.70;;;4.90;99.90;;;;;;7591344;19;20047;-73
2023/04/20 00:22:40;;;;;;;34.47;20.15;;;4.90;99.90;;;;;;7579845;19;21435;-72
2023/04/20 00:25:13;;;;;;;32.83;18.20;;;4.90;99.90;;;;;;7593142;19;20018;-73
2023/04/20 00:27:45;;;;;;;33.47;20.00;;;5.00;99.90;;;;;;7582808;19;20506;-73
2023/04/20 00:30:17;;;;;;;29.40;17.83;;;5.00;99.90;;;;;;7592873;19;20022;-73
2023/04/20 00:32:50;;;;;;;39.63;21.23;;;4.90;99.90;;;;;;7590299;19;20227;-72
2023/04/20 00:35:22;;;;;;;37.40;19.92;;;4.90;99.90;;;;;;7580443;19;20019;-72
2023/04/20 00:37:55;;;;;;;32.83;19.33;;;4.90;99.90;;;;;;7582425;19;20054;-73
2023/04/20 00:40:29;;;;;;;37.97;18.67;;;5.00;99.90;;;;;;7585635;19;20105;-71
2023/04/20 00:43:09;;;;;;;29.40;16.95;;;5.00;99.90;;;;;;7573221;19;20525;-72
2023/04/20 00:45:41;;;;;;;30.67;16.65;;;5.00;99.90;;;;;;7591218;19;20018;-72
2023/04/20 00:48:14;;;;;;;27.27;16.15;;;5.00;99.90;;;;;;7598981;19;20028;-72
2023/04/20 00:50:47;;;;;;;27.20;15.65;;;5.00;99.90;;;;;;7594199;19;20022;-72
2023/04/20 00:53:20;;;;;;;27.25;15.40;;;5.00;99.90;;;;;;7576800;19;20463;-72
2023/04/20 00:55:53;;;;;;;26.08;14.18;;;5.00;99.90;;;;;;7596028;19;20022;-72
2023/04/20 00:58:25;;;;;;;27.33;14.80;;;5.00;99.90;;;;;;7592649;19;20018;-72
2023/04/20 01:00:58;;;;;;;27.63;15.35;;;5.00;99.90;;;;;;7585901;19;20153;-71
2023/04/20 01:03:30;;;;;;;23.55;14.25;;;5.00;99.90;;;;;;7577257;19;20011;-71
2023/04/20 01:06:06;;;;;;;27.52;15.10;;;4.90;99.90;;;;;;7593406;19;20026;-72
2023/04/20 01:08:46;;;;;;;28.33;15.32;;;5.00;99.90;;;;;;7564975;19;20015;-72
2023/04/20 01:11:19;;;;;;;28.23;15.25;;;5.00;99.90;;;;;;7600065;19;20109;-71
2023/04/20 01:13:51;;;;;;;25.63;14.90;;;5.00;99.90;;;;;;7583653;19;20025;-72
2023/04/20 01:16:23;;;;;;;24.08;13.57;;;4.90;99.90;;;;;;7589881;19;20073;-72
2023/04/20 01:18:56;;;;;;;27.23;14.32;;;4.90;99.90;;;;;;7589956;19;20014;-72
2023/04/20 01:21:28;;;;;;;20.50;12.17;;;4.90;99.90;;;;;;7582433;19;20781;-72
2023/04/20 01:24:02;;;;;;;23.77;12.73;;;4.90;99.90;;;;;;7585155;19;20014;-72
2023/04/20 01:26:36;;;;;;;22.83;12.57;;;4.90;99.90;;;;;;7585490;19;20037;-73
2023/04/20 01:29:11;;;;;;;20.33;11.40;;;4.90;99.90;;;;;;7582276;19;20368;-72
2023/04/20 01:31:43;;;;;;;21.48;12.38;;;4.90;99.90;;;;;;7597245;19;20657;-72
2023/04/20 01:34:16;;;;;;;21.25;12.18;;;4.80;99.90;;;;;;7599415;19;20018;-72
2023/04/20 01:36:49;;;;;;;23.27;11.57;;;4.90;99.90;;;;;;7590135;19;20024;-72
2023/04/20 01:39:21;;;;;;;19.48;11.05;;;4.80;99.90;;;;;;7585929;19;20026;-72
2023/04/20 01:41:53;;;;;;;16.35;9.38;;;4.80;99.90;;;;;;7594154;19;20030;-71
2023/04/20 01:44:25;;;;;;;22.02;11.27;;;4.80;99.90;;;;;;7589691;19;20086;-72
2023/04/20 01:46:58;;;;;;;17.42;10.88;;;4.80;99.90;;;;;;7580074;19;20025;-72
2023/04/20 01:49:30;;;;;;;17.88;9.90;;;4.80;99.90;;;;;;7585892;19;20101;-72
2023/04/20 01:52:03;;;;;;;20.13;9.43;;;4.80;99.90;;;;;;7589875;19;20011;-72
2023/04/20 01:54:36;;;;;;;14.80;8.88;;;4.80;99.90;;;;;;7596644;19;20011;-72
2023/04/20 01:57:08;;;;;;;;;;;4.80;99.90;;;;;;7580813;19;20019;-71
2023/04/20 01:59:40;;;;;;;15.52;9.52;;;4.70;99.90;;;;;;7601827;19;19926;-72
2023/04/20 02:02:12;;;;;;;17.25;9.73;;;4.70;99.90;;;;;;7583723;19;20365;-72
2023/04/20 02:04:45;;;;;;;17.20;9.93;;;4.70;99.90;;;;;;7581742;19;20015;-72
2023/04/20 02:07:17;;;;;;;16.55;9.93;;;4.80;99.90;;;;;;7588921;19;20022;-71
2023/04/20 02:09:49;;;;;;;17.50;10.52;;;4.80;99.90;;;;;;7564570;19;20018;-73
2023/04/20 02:12:22;;;;;;;18.92;10.10;;;4.80;99.90;;;;;;7581206;19;20014;-72
2023/04/20 02:14:54;;;;;;;14.45;9.63;;;4.80;99.90;;;;;;7594057;19;20105;-71
2023/04/20 02:17:28;;;;;;;18.38;10.70;;;4.80;99.90;;;;;;7592582;19;20047;-72
2023/04/20 02:20:00;;;;;;;16.65;10.13;;;4.80;99.90;;;;;;7597405;19;20018;-71
2023/04/20 02:22:33;;;;;;;16.85;10.25;;;4.80;99.90;;;;;;7584323;19;20006;-72
2023/04/20 02:25:08;;;;;;;19.67;10.95;;;4.80;99.90;;;;;;7594140;19;20018;-71
2023/04/20 02:27:41;;;;;;;19.20;10.55;;;4.80;99.90;;;;;;7588096;19;20132;-71
2023/04/20 02:30:15;;;;;;;21.50;11.18;;;4.80;99.90;;;;;;7581575;19;21121;-71
2023/04/20 02:32:48;;;;;;;18.13;10.90;;;4.70;99.90;;;;;;7596125;19;20022;-71
2023/04/20 02:35:20;;;;;;;18.80;10.63;;;4.80;99.90;;;;;;7590598;19;20133;-72
2023/04/20 02:37:53;;;;;;;19.08;11.00;;;4.80;99.90;;;;;;7570401;19;20010;-72
2023/04/20 02:40:25;;;;;;;21.00;12.27;;;4.80;99.90;;;;;;7581868;19;20641;-72
2023/04/20 02:42:58;;;;;;;22.70;11.70;;;4.80;99.90;;;;;;7583964;19;20524;-72
2023/04/20 02:45:32;;;;;;;23.50;12.65;;;4.70;99.90;;;;;;7579699;19;20108;-71
2023/04/20 02:48:04;;;;;;;21.13;12.23;;;4.80;99.90;;;;;;7585924;19;20017;-71
2023/04/20 02:50:37;;;;;;;23.88;13.70;;;4.70;99.90;;;;;;7588165;19;20263;-71
2023/04/20 02:53:19;;;;;;;21.80;13.25;;;4.70;99.90;;;;;;7593742;19;20921;-72
2023/04/20 02:55:59;;;;;;;24.80;14.18;;;4.70;99.90;;;;;;7591115;19;20820;-71
2023/04/20 02:58:43;;;;;;;22.92;13.23;;;4.70;99.90;;;;;;7597650;19;20046;-71
2023/04/20 03:01:38;;;;;;;25.30;13.63;;;4.70;99.90;;;;;;7597503;19;20593;-73
2023/04/20 03:04:18;;;;;;;24.67;14.38;;;4.60;99.90;;;;;;7587390;19;20018;-71
2023/04/20 03:07:04;;;;;;;27.15;13.02;;;4.60;99.90;;;;;;7529098;19;20029;-71
2023/04/20 03:09:39;;;;;;;24.65;13.10;;;4.60;99.90;;;;;;7600065;19;20100;-71
2023/04/20 03:12:27;;;;;;;22.23;12.60;;;4.50;99.90;;;;;;7595111;19;20023;-70
2023/04/20 03:15:32;;;;;;;24.90;12.25;;;4.50;99.90;;;;;;7580420;19;20021;-72
2023/04/20 03:18:19;;;;;;;21.83;12.10;;;4.50;99.90;;;;;;7592560;19;20030;-71
2023/04/20 03:20:52;;;;;;;21.77;13.20;;;4.50;99.90;;;;;;7595950;19;21035;-72
2023/04/20 03:23:24;;;;;;;23.85;12.82;;;4.50;99.90;;;;;;7600040;19;20015;-72
2023/04/20 03:25:56;;;;;;;26.05;13.93;;;4.50;99.90;;;;;;7587708;19;20075;-71
2023/04/20 03:28:49;;;;;;;25.55;14.65;;;4.50;99.90;;;;;;7584505;19;20010;-72
2023/04/20 03:31:25;;;;;;;25.92;14.63;;;4.50;99.90;;;;;;7591386;19;20022;-72
2023/04/20 03:34:00;;;;;;;25.85;13.98;;;4.50;99.90;;;;;;7577532;19;20010;-72
2023/04/20 03:36:33;;;;;;;32.80;15.50;;;4.40;99.90;;;;;;7583066;19;20542;-72
2023/04/20 03:39:05;;;;;;;26.90;15.25;;;4.40;99.90;;;;;;7595990;19;20014;-72
2023/04/20 03:41:38;;;;;;;29.92;15.55;;;4.40;99.90;;;;;;7595344;19;20023;-73
2023/04/20 03:44:10;;;;;;;31.90;16.77;;;4.50;99.90;;;;;;7596766;19;20533;-73
2023/04/20 03:46:43;;;;;;;29.48;15.55;;;4.50;99.90;;;;;;7585946;19;20010;-73
2023/04/20 03:49:15;;;;;;;36.47;17.02;;;4.50;99.90;;;;;;7567503;19;20014;-73
2023/04/20 03:51:48;;;;;;;29.25;15.20;;;4.50;99.90;;;;;;7597952;19;20022;-73
2023/04/20 03:54:20;;;;;;;34.08;17.38;;;4.50;99.90;;;;;;7549102;19;20010;-73
2023/04/20 03:56:52;;;;;;;32.80;15.48;;;4.50;99.90;;;;;;7570683;19;20102;-73
2023/04/20 03:59:25;;;;;;;29.70;14.73;;;4.50;99.90;;;;;;7583710;19;20006;-73
2023/04/20 04:01:58;;;;;;;22.70;13.13;;;4.50;99.90;;;;;;7566030;19;20556;-73
2023/04/20 04:04:31;;;;;;;22.80;13.55;;;4.50;99.90;;;;;;7573493;19;20015;-73
2023/04/20 04:07:04;;;;;;;25.10;13.60;;;4.50;99.90;;;;;;7570628;19;20019;-73
2023/04/20 04:09:36;;;;;;;21.23;13.23;;;4.40;99.90;;;;;;7542788;19;20018;-73
2023/04/20 04:12:08;;;;;;;22.38;12.23;;;4.40;99.90;;;;;;7549304;19;20287;-73
2023/04/20 04:14:42;;;;;;;22.33;13.20;;;4.40;99.90;;;;;;7575473;19;20022;-73
2023/04/20 04:17:16;;;;;;;22.58;13.18;;;4.30;99.90;;;;;;7560340;19;20986;-72
2023/04/20 04:19:49;;;;;;;22.67;12.93;;;4.40;99.90;;;;;;7553997;19;20090;-72
2023/04/20 04:22:21;;;;;;;22.92;12.90;;;4.30;99.90;;;;;;7553209;19;20102;-71
2023/04/20 04:25:14;;;;;;;20.95;11.95;;;4.30;99.90;;;;;;7565329;19;21273;-73
2023/04/20 04:27:48;;;;;;;20.90;12.05;;;4.30;99.90;;;;;;7559744;19;20090;-72
2023/04/20 04:30:20;;;;;;;19.02;11.32;;;4.20;99.90;;;;;;7575134;19;20041;-73
2023/04/20 04:32:52;;;;;;;20.25;11.98;;;4.20;99.90;;;;;;7558417;19;20019;-73
2023/04/20 04:35:25;;;;;;;21.83;11.65;;;4.20;99.90;;;;;;7568865;19;20014;-73
2023/04/20 04:37:59;;;;;;;18.52;10.68;;;4.20;99.90;;;;;;7563649;19;20056;-72
2023/04/20 04:40:32;;;;;;;19.05;11.18;;;4.20;99.90;;;;;;7560340;19;20517;-72
2023/04/20 04:43:09;;;;;;;17.13;10.30;;;4.10;99.90;;;;;;7537676;19;20014;-73
2023/04/20 04:45:44;;;;;;;18.65;10.90;;;4.20;99.90;;;;;;7552293;19;21092;-72
2023/04/20 04:48:16;;;;;;;17.92;11.13;;;4.20;99.90;;;;;;7571434;19;20022;-72
2023/04/20 04:50:50;;;;;;;;;;;4.20;99.90;;;;;;7530597;19;20395;-72
2023/04/20 04:53:22;;;;;;;16.80;10.25;;;4.30;99.90;;;;;;7556459;19;19948;-73
2023/04/20 04:55:54;;;;;;;21.60;11.18;;;4.20;99.90;;;;;;7551017;19;20114;-72
2023/04/20 04:58:26;;;;;;;16.58;11.00;;;4.20;99.90;;;;;;7587016;19;20014;-73
2023/04/20 05:00:59;;;;;;;21.67;12.02;;;4.10;99.90;;;;;;7551710;19;20006;-72
2023/04/20 05:03:31;;;;;;;23.20;12.85;;;4.20;99.90;;;;;;7553381;19;20025;-72
2023/04/20 05:06:03;;;;;;;21.60;12.75;;;4.20;99.90;;;;;;7541944;19;20018;-71
2023/04/20 05:08:36;;;;;;;24.35;12.60;;;4.20;99.90;;;;;;7554802;19;21250;-72
2023/04/20 05:11:08;;;;;;;21.25;11.32;;;4.20;99.90;;;;;;7528555;19;21277;-71
2023/04/20 05:13:40;;;;;;;18.30;11.18;;;4.20;99.90;;;;;;7553656;19;20010;-74
2023/04/20 05:16:13;;;;;;;16.38;9.90;;;4.20;99.90;;;;;;7548615;19;20128;-72
2023/04/20 05:18:45;;;;;;;15.70;10.25;;;4.20;99.90;;;;;;7565865;19;20022;-72
2023/04/20 05:21:18;;;;;;;16.67;9.63;;;4.20;99.90;;;;;;7530197;19;20844;-71
2023/04/20 05:23:50;;;;;;;15.88;10.25;;;4.20;99.90;;;;;;7502242;19;20035;-72
2023/04/20 05:26:22;;;;;;;19.08;10.68;;;4.20;99.90;;;;;;7544089;19;20993;-71
2023/04/20 05:28:54;;;;;;;17.55;10.77;;;4.20;99.90;;;;;;7530919;19;20014;-71
2023/04/20 05:31:27;;;;;;;18.27;10.73;;;4.20;99.90;;;;;;7529843;19;20026;-71
2023/04/20 05:34:01;;;;;;;17.25;10.55;;;4.30;99.90;;;;;;7533658;19;20022;-73
2023/04/20 05:36:33;;;;;;;;;;;4.20;99.90;;;;;;7582815;19;20022;-72
2023/04/20 05:39:05;;;;;;;16.88;9.88;;;4.30;99.90;;;;;;7563186;19;20297;-71
2023/04/20 05:41:38;;;;;;;18.95;10.90;;;4.20;99.90;;;;;;7569470;19;20037;-70
2023/04/20 05:44:10;;;;;;;17.30;11.13;;;4.20;99.90;;;;;;7552216;19;20038;-72
2023/04/20 05:46:43;;;;;;;16.65;10.43;;;4.20;99.90;;;;;;7576059;19;20014;-71
2023/04/20 05:49:15;;;;;;;15.35;9.88;;;4.20;99.90;;;;;;7588301;19;20926;-71
2023/04/20 05:51:48;;;;;;;16.63;8.88;;;4.20;99.90;;;;;;7591925;19;20010;-71
2023/04/20 05:54:21;;;;;;;15.98;9.32;;;4.20;99.90;;;;;;7596064;19;20014;-74
2023/04/20 05:56:54;;;;;;;16.73;7.25;;;4.20;99.90;;;;;;7573901;19;20891;-71
2023/04/20 05:59:26;;;;;;;;;;;4.20;99.90;;;;;;7576164;19;20018;-71
2023/04/20 06:01:59;;;;;;;20.15;10.27;;;4.20;99.90;;;;;;7542415;19;19918;-72
2023/04/20 06:04:31;;;;;;;19.23;9.37;;;4.20;99.90;;;;;;7574626;19;20017;-71
2023/04/20 06:07:04;;;;;;;12.23;7.87;;;4.20;99.90;;;;;;7569094;19;20059;-72
2023/04/20 06:09:37;;;;;;;14.88;9.23;;;4.30;99.90;;;;;;7585666;19;20112;-71
2023/04/20 06:12:09;;;;;;;15.35;9.43;;;4.30;99.90;;;;;;7561057;19;20025;-74
2023/04/20 06:14:41;;;;;;;18.65;10.13;;;4.40;99.90;;;;;;7578776;19;20033;-74
2023/04/20 06:17:13;;;;;;;20.10;11.23;;;4.40;99.90;;;;;;7538126;19;20081;-71
2023/04/20 06:19:46;;;;;;;20.10;10.40;;;4.40;99.90;;;;;;7584719;19;20022;-72
2023/04/20 06:22:19;;;;;;;17.80;11.13;;;4.40;99.90;;;;;;7549606;19;20025;-71
2023/04/20 06:24:51;;;;;;;15.13;9.73;;;4.40;99.90;;;;;;7566840;19;24489;-74
2023/04/20 06:27:24;;;;;;;14.23;9.45;;;4.40;99.90;;;;;;7561102;19;20082;-72
2023/04/20 06:29:56;;;;;;;16.85;10.50;;;4.40;99.90;;;;;;7558522;19;20024;-72
2023/04/20 06:32:28;;;;;;;17.30;11.23;;;4.50;99.90;;;;;;7591239;19;20022;-73
2023/04/20 06:35:00;;;;;;;16.25;10.27;;;4.50;99.90;;;;;;7602271;19;20006;-71
2023/04/20 06:37:36;;;;;;;17.08;11.07;;;4.50;99.90;;;;;;7606891;19;20010;-72
2023/04/20 06:40:09;;;;;;;19.30;11.48;;;4.50;99.90;;;;;;7599984;19;20025;-72
2023/04/20 06:42:41;;;;;;;17.65;10.32;;;4.40;99.90;;;;;;7601584;19;20014;-72
2023/04/20 06:45:13;;;;;;;13.73;8.98;;;4.50;99.90;;;;;;7596123;19;20498;-72
2023/04/20 06:47:45;;;;;;;15.50;8.70;;;4.50;99.90;;;;;;7602544;19;20014;-72
2023/04/20 06:50:18;;;;;;;14.25;8.10;;;4.50;99.90;;;;;;7589901;19;20593;-72
2023/04/20 06:52:50;;;;;;;13.50;8.43;;;4.50;99.90;;;;;;7581551;19;20759;-73
2023/04/20 06:55:22;;;;;;;13.20;9.07;;;4.60;99.90;;;;;;7596040;19;20631;-72
2023/04/20 06:57:55;;;;;;;15.33;9.77;;;4.60;99.90;;;;;;7586061;19;20025;-72
2023/04/20 07:00:27;;;;;;;17.92;10.82;;;4.60;99.90;;;;;;7598034;19;20048;-72
2023/04/20 07:03:01;;;;;;;15.57;10.43;;;4.60;99.90;;;;;;7591263;19;20489;-74
2023/04/20 07:05:35;;;;;;;19.65;11.82;;;4.60;99.90;;;;;;7599308;19;20016;-73
2023/04/20 07:08:08;;;;;;;26.38;14.25;;;4.60;99.90;;;;;;7599703;19;20011;-72
2023/04/20 07:10:40;;;;;;;19.53;12.73;;;4.70;99.90;;;;;;7582804;19;20018;-73
2023/04/20 07:13:12;;;;;;;15.75;10.82;;;4.70;99.90;;;;;;7601181;19;20030;-73
2023/04/20 07:15:45;;;;;;;15.75;10.20;;;4.70;99.90;;;;;;7600775;19;20020;-72
2023/04/20 07:18:17;;;;;;;16.15;10.55;;;4.60;99.90;;;;;;7597787;19;20026;-74
2023/04/20 07:20:50;;;;;;;16.45;10.70;;;4.60;99.90;;;;;;7600334;19;20007;-74
2023/04/20 07:23:23;;;;;;;14.68;10.07;;;4.60;99.90;;;;;;7591416;19;20022;-74
2023/04/20 07:25:55;;;;;;;16.63;10.52;;;4.60;99.90;;;;;;7600129;19;20025;-74
2023/04/20 07:28:27;;;;;;;18.58;12.30;;;4.60;99.90;;;;;;7595868;19;20041;-73
2023/04/20 07:31:00;;;;;;;21.50;12.98;;;4.50;99.90;;;;;;7582153;19;20018;-73
2023/04/20 07:33:34;;;;;;;21.73;14.27;;;4.50;99.90;;;;;;7595162;19;20522;-74
2023/04/20 07:36:07;;;;;;;21.67;12.90;;;4.50;99.90;;;;;;7609144;19;20096;-74
2023/04/20 07:38:39;;;;;;;21.70;13.80;;;4.50;99.90;;;;;;7596858;19;20929;-74
2023/04/20 07:41:11;;;;;;;20.30;13.57;;;4.50;99.90;;;;;;7581707;19;20055;-73
2023/04/20 07:43:43;;;;;;;19.05;11.98;;;4.60;99.90;;;;;;7602727;19;20110;-74
2023/04/20 07:46:20;;;;;;;20.02;12.68;;;4.60;99.90;;;;;;7608957;19;20115;-74
2023/04/20 07:48:52;;;;;;;21.75;12.48;;;4.60;99.90;;;;;;7591618;19;20011;-74
2023/04/20 07:51:25;;;;;;;20.15;12.55;;;4.70;99.90;;;;;;7602360;19;20094;-74
2023/04/20 07:53:57;;;;;;;25.13;13.57;;;4.70;99.90;;;;;;7602126;19;20846;-74
2023/04/20 07:56:30;;;;;;;21.48;13.73;;;4.70;99.90;;;;;;7598834;19;20283;-74
2023/04/20 07:59:03;;;;;;;22.25;13.15;;;4.70;99.90;;;;;;7592211;19;20015;-74
2023/04/20 08:01:35;;;;;;;21.83;13.50;;;4.70;99.90;;;;;;7598215;19;20019;-72
2023/04/20 08:04:07;;;;;;;21.50;14.23;;;4.70;99.90;;;;;;7596729;19;20020;-72
2023/04/20 08:06:40;;;;;;;19.85;13.52;;;4.70;99.90;;;;;;7598007;19;20022;-72
2023/04/20 08:09:12;;;;;;;22.52;13.35;;;4.70;99.90;;;;;;7586521;19;20014;-73
2023/04/20 08:11:45;;;;;;;20.48;13.20;;;4.80;99.90;;;;;;7592382;19;20037;-73
2023/04/20 08:14:17;;;;;;;19.30;12.20;;;4.80;99.90;;;;;;7599274;19;20617;-72
2023/04/20 08:16:50;;;;;;;20.10;12.38;;;4.80;99.90;;;;;;7593340;19;20052;-73
2023/04/20 08:19:22;;;;;;;18.77;12.43;;;4.90;99.90;;;;;;7588493;19;20018;-73
2023/04/20 08:21:55;;;;;;;23.48;14.43;;;4.90;99.90;;;;;;7591404;19;20101;-72
2023/04/20 08:24:28;;;;;;;22.05;14.52;;;4.90;99.90;;;;;;7605760;19;20082;-73
2023/04/20 08:27:00;;;;;;;21.45;13.90;;;4.90;99.90;;;;;;7588144;19;20027;-73
2023/04/20 08:29:32;;;;;;;27.17;16.10;;;4.80;99.90;;;;;;7610760;19;20078;-73
2023/04/20 08:32:07;;;;;;;26.80;16.52;;;4.90;99.90;;;;;;7598194;19;20458;-73
2023/04/20 08:34:43;;;;;;;28.85;17.50;;;4.90;99.90;;;;;;7599942;19;20021;-73
2023/04/20 08:37:15;;;;;;;31.55;16.98;;;5.00;99.90;;;;;;7593315;19;20018;-73
2023/04/20 08:39:48;;;;;;;25.77;17.35;;;4.90;99.90;;;;;;7593680;19;20016;-73
2023/04/20 08:42:20;;;;;;;27.75;17.10;;;4.90;99.90;;;;;;7595440;19;20018;-73
2023/04/20 08:44:52;;;;;;;23.95;16.67;;;4.90;99.90;;;;;;7603400;19;21349;-73
2023/04/20 08:47:26;;;;;;;25.92;16.83;;;5.00;99.90;;;;;;7601741;19;20016;-73
2023/04/20 08:49:59;;;;;;;24.63;16.00;;;4.90;99.90;;;;;;7598403;19;20015;-74
2023/04/20 08:52:34;;;;;;;26.98;16.77;;;5.00;99.90;;;;;;7573695;19;20946;-74
2023/04/20 08:55:07;;;;;;;23.75;14.85;;;4.90;99.90;;;;;;7588471;19;20045;-74
2023/04/20 08:57:41;;;;;;;25.40;15.75;;;4.90;99.90;;;;;;7564175;19;20017;-74
2023/04/20 09:00:13;;;;;;;;;;;4.90;99.90;;;;;;7579267;19;20543;-74
2023/04/20 09:02:53;;;;;;;23.30;14.95;;;4.90;99.90;;;;;;7572001;19;19929;-74
2023/04/20 09:05:30;;;;;;;26.13;16.20;;;4.90;99.90;;;;;;7546045;19;20052;-74
2023/04/20 09:08:04;;;;;;;29.23;17.08;;;4.90;99.90;;;;;;7579411;19;20014;-74
2023/04/20 09:10:43;;;;;;;27.10;17.02;;;4.90;99.90;;;;;;7573134;19;20060;-74
2023/04/20 09:13:22;;;;;;;28.40;17.60;;;4.90;99.90;;;;;;7570724;19;21022;-74
2023/04/20 09:15:55;;;;;;;28.50;18.00;;;4.90;99.90;;;;;;7577100;19;20014;-74
2023/04/20 09:18:27;;;;;;;28.52;18.02;;;4.80;99.90;;;;;;7591442;19;20022;-75
2023/04/20 09:21:07;;;;;;;29.60;18.87;;;4.80;99.90;;;;;;7571191;19;20022;-74
2023/04/20 09:23:40;;;;;;;26.65;18.02;;;4.90;99.90;;;;;;7591176;19;20263;-75
2023/04/20 09:26:17;;;;;;;26.55;16.52;;;5.00;99.90;;;;;;7562383;19;20044;-74
2023/04/20 09:28:50;;;;;;;26.33;17.23;;;5.00;99.90;;;;;;7592714;19;20633;-74
2023/04/20 09:31:22;;;;;;;26.52;16.55;;;5.00;99.90;;;;;;7602111;19;20052;-74
2023/04/20 09:34:00;;;;;;;26.33;17.00;;;5.00;99.90;;;;;;7590062;19;21047;-75
2023/04/20 09:36:40;;;;;;;26.15;17.10;;;5.10;99.90;;;;;;7592661;19;20522;-75
2023/04/20 09:39:15;;;;;;;24.85;17.35;;;5.20;99.90;;;;;;7606687;19;20030;-73
2023/04/20 09:41:51;;;;;;;27.65;18.33;;;5.20;99.90;;;;;;7563905;19;20018;-74
2023/04/20 09:44:24;;;;;;;28.40;16.85;;;5.20;99.90;;;;;;7566152;19;20165;-74
2023/04/20 09:46:58;;;;;;;25.75;17.15;;;5.20;99.90;;;;;;7583912;19;20041;-74
2023/04/20 09:49:31;;;;;;;25.45;16.98;;;5.30;99.90;;;;;;7594231;19;20026;-75
2023/04/20 09:52:03;;;;;;;24.52;16.63;;;5.30;99.90;;;;;;7577865;19;20165;-74
2023/04/20 09:54:36;;;;;;;32.05;17.20;;;5.20;99.90;;;;;;7581252;19;20018;-75
2023/04/20 09:57:09;;;;;;;24.33;17.40;;;5.30;99.90;;;;;;7572601;19;20125;-74
2023/04/20 09:59:42;;;;;;;24.98;16.73;;;5.30;99.90;;;;;;7589094;19;20109;-74
2023/04/20 10:02:14;;;;;;;;;;;5.30;99.90;;;;;;7594205;19;20153;-75
2023/04/20 10:04:55;;;;;;;24.30;16.55;;;5.30;99.90;;;;;;7587263;19;20396;-73
2023/04/20 10:07:30;;;;;;;24.27;15.15;;;5.40;99.90;;;;;;7587578;19;20025;-72
2023/04/20 10:10:11;;;;;;;23.45;15.82;;;5.40;99.90;;;;;;7583850;19;20015;-73
2023/04/20 10:12:51;;;;;;;21.90;14.85;;;5.40;99.90;;;;;;7592741;19;21438;-73
2023/04/20 10:15:35;;;;;;;21.48;14.02;;;5.40;99.90;;;;;;7592006;19;20015;-73
2023/04/20 10:18:22;;;;;;;22.85;15.43;;;5.50;99.90;;;;;;7589378;19;20105;-73
2023/04/20 10:21:09;;;;;;;24.70;16.08;;;5.40;99.90;;;;;;7576260;19;20051;-73
2023/04/20 10:23:49;;;;;;;23.27;15.30;;;5.40;99.90;;;;;;7583452;19;20037;-74
2023/04/20 10:26:22;;;;;;;25.27;15.60;;;5.50;99.90;;;;;;7583593;19;20033;-73
2023/04/20 10:28:54;;;;;;;24.23;16.73;;;5.50;99.90;;;;;;7560667;19;20105;-73
2023/04/20 10:31:40;;;;;;;24.58;17.40;;;5.40;99.90;;;;;;7561648;19;20034;-73
2023/04/20 10:34:13;;;;;;;23.58;17.27;;;5.50;99.90;;;;;;7573916;19;20402;-73
2023/04/20 10:36:45;;;;;;;25.37;17.30;;;5.60;99.90;;;;;;7579222;19;20022;-73
2023/04/20 10:39:20;;;;;;;22.90;16.05;;;5.80;99.90;;;;;;7576620;19;20891;-73
2023/04/20 10:42:00;;;;;;;23.58;16.25;;;5.80;99.90;;;;;;7561128;19;20410;-73
2023/04/20 10:44:34;;;;;;;27.90;16.90;;;5.90;99.90;;;;;;7582572;19;20022;-73
2023/04/20 10:47:06;;;;;;;26.00;17.85;;;6.00;99.90;;;;;;7549747;19;20014;-73
2023/04/20 10:49:39;;;;;;;26.23;17.25;;;6.00;99.90;;;;;;7551573;19;20106;-73
2023/04/20 10:52:11;;;;;;;23.08;17.25;;;6.00;99.90;;;;;;7564813;19;20063;-74
2023/04/20 10:54:43;;;;;;;23.95;16.15;;;6.00;99.90;;;;;;7602723;19;20019;-73
2023/04/20 10:57:15;;;;;;;24.65;17.45;;;6.00;99.90;;;;;;7577048;19;20039;-73
2023/04/20 10:59:48;;;;;;;21.77;15.88;;;6.00;99.90;;;;;;7602584;19;20021;-73
2023/04/20 11:02:20;;;;;;;25.80;16.75;;;6.00;99.90;;;;;;7592507;19;20063;-73
2023/04/20 11:04:59;;;;;;;21.42;16.60;;;6.00;99.90;;;;;;7600979;19;20415;-73
2023/04/20 11:07:32;;;;;;;23.17;16.48;;;6.00;99.90;;;;;;7591961;19;20920;-74
2023/04/20 11:10:05;;;;;;;21.55;16.42;;;6.00;99.90;;;;;;7603696;19;20019;-73
2023/04/20 11:12:38;;;;;;;21.85;16.38;;;6.00;99.90;;;;;;7605925;19;20019;-73
2023/04/20 11:15:11;;;;;;;22.35;16.90;;;6.00;99.90;;;;;;7608109;19;20018;-73
2023/04/20 11:17:43;;;;;;;23.52;16.73;;;6.00;99.90;;;;;;7605705;19;22288;-75
2023/04/20 11:20:17;;;;;;;22.88;16.90;;;6.10;99.90;;;;;;7605882;19;20122;-75
2023/04/20 11:22:56;;;;;;;;;;;6.10;99.90;;;;;;7609128;19;20937;-75
2023/04/20 11:25:28;;;;;;;25.23;18.35;;;6.00;99.90;;;;;;7600936;19;20878;-75
2023/04/20 11:28:10;;;;;;;23.50;17.13;;;6.00;99.90;;;;;;7602152;19;20629;-75
2023/04/20 11:30:42;;;;;;;20.15;14.75;;;6.10;99.90;;;;;;7606784;19;20033;-74
2023/04/20 11:33:26;;;;;;;18.95;14.77;;;6.10;99.90;;;;;;7607307;19;20018;-74
2023/04/20 11:36:00;;;;;;;18.48;13.10;;;6.10;99.90;;;;;;7605825;19;20021;-75
2023/04/20 11:38:33;;;;;;;19.58;13.85;;;6.20;99.90;;;;;;7605624;19;20026;-75
2023/04/20 11:41:06;;;;;;;18.52;11.93;;;6.20;99.90;;;;;;7604742;19;20377;-75
2023/04/20 11:43:38;;;;;;;17.23;13.23;;;6.20;99.90;;;;;;7609875;19;20037;-75
2023/04/20 11:46:20;;;;;;;18.10;12.40;;;6.20;99.90;;;;;;7604743;19;20291;-75
2023/04/20 11:48:52;;;;;;;15.65;11.70;;;6.20;99.90;;;;;;7606143;19;20518;-75
2023/04/20 11:51:26;;;;;;;16.20;12.47;;;6.20;99.90;;;;;;7605900;19;23018;-74
2023/04/20 11:53:58;;;;;;;21.45;14.48;;;6.20;99.90;;;;;;7605692;19;20423;-75
2023/04/20 11:56:30;;;;;;;19.15;14.07;;;6.20;99.90;;;;;;7605856;19;20014;-75
2023/04/20 11:59:03;;;;;;;17.90;13.40;;;6.20;99.90;;;;;;7606661;19;20504;-74
2023/04/20 12:01:37;;;;;;;18.08;13.77;;;6.20;99.90;;;;;;7606157;19;20017;-75
2023/04/20 12:04:09;;;;;;;19.65;13.77;;;6.20;99.90;;;;;;7603709;19;20019;-74
2023/04/20 12:06:42;;;;;;;17.07;12.27;;;6.30;99.90;;;;;;7609446;19;20022;-74
2023/04/20 12:09:14;;;;;;;17.40;13.15;;;6.20;99.90;;;;;;7602618;19;20011;-75
2023/04/20 12:11:46;;;;;;;17.77;12.52;;;6.30;99.90;;;;;;7609463;19;20014;-73
2023/04/20 12:14:19;;;;;;;23.10;13.25;;;6.30;99.90;;;;;;7601916;19;20569;-75
2023/04/20 12:16:51;;;;;;;18.63;12.65;;;6.30;99.90;;;;;;7608959;19;20018;-74
2023/04/20 12:19:23;;;;;;;18.90;12.38;;;6.30;99.90;;;;;;7596697;19;20114;-74
2023/04/20 12:21:55;;;;;;;19.50;13.43;;;6.30;99.90;;;;;;7606654;19;20018;-75
2023/04/20 12:24:28;;;;;;;17.20;12.67;;;6.30;99.90;;;;;;7603679;19;20149;-75
2023/04/20 12:27:02;;;;;;;17.67;12.30;;;6.40;99.90;;;;;;7606498;19;20434;-74
2023/04/20 12:29:34;;;;;;;17.85;12.55;;;6.30;99.90;;;;;;7602379;19;21140;-74
2023/04/20 12:32:07;;;;;;;17.58;12.13;;;6.30;99.90;;;;;;7606296;19;20097;-74
2023/04/20 12:34:39;;;;;;;17.95;12.88;;;6.40;99.90;;;;;;7611078;19;20953;-74
2023/04/20 12:37:13;;;;;;;18.83;12.53;;;6.40;99.90;;;;;;7603215;19;20018;-74
2023/04/20 12:39:45;;;;;;;;;;;6.40;99.90;;;;;;7610304;19;20018;-74
2023/04/20 12:42:18;;;;;;;17.90;12.80;;;6.30;99.90;;;;;;7602330;19;19922;-74
2023/04/20 12:44:53;;;;;;;22.43;13.93;;;6.30;99.90;;;;;;7607619;19;20051;-74
2023/04/20 12:47:25;;;;;;;20.45;14.38;;;6.40;99.90;;;;;;7594783;19;20267;-74
2023/04/20 12:49:58;;;;;;;19.98;13.60;;;6.40;99.90;;;;;;7531778;19;21490;-74
2023/04/20 12:52:30;;;;;;;20.70;13.52;;;6.50;99.90;;;;;;7557066;19;20045;-74
2023/04/20 12:55:02;;;;;;;21.98;14.30;;;6.50;99.90;;;;;;7591515;19;20018;-74
2023/04/20 12:57:35;;;;;;;19.75;14.00;;;6.60;99.90;;;;;;7579228;19;20038;-74
2023/04/20 13:00:09;;;;;;;18.73;13.50;;;6.70;99.90;;;;;;7588765;19;20060;-74
2023/04/20 13:02:43;;;;;;;24.33;13.65;;;6.80;99.90;;;;;;7594524;19;20459;-72
2023/04/20 13:05:16;;;;;;;20.40;13.90;;;6.80;99.90;;;;;;7581996;19;20640;-73
2023/04/20 13:07:48;;;;;;;20.33;13.85;;;6.90;99.90;;;;;;7589403;19;20023;-74
2023/04/20 13:10:20;;;;;;;19.08;13.20;;;7.00;99.90;;;;;;7583263;19;20086;-74
2023/04/20 13:12:53;;;;;;;18.35;12.60;;;7.10;99.90;;;;;;7582466;19;20024;-73
2023/04/20 13:15:25;;;;;;;19.45;13.65;;;7.20;99.90;;;;;;7571052;19;20019;-74